sensor_id;sensor_type;location;lat;lon;timestamp;pressure;altitude;pressure_sealevel;temperature;humidity
27294;BME280;14785;52.556;13.430;2022-11-20T00:00:16;100402.34;;;1.60;100.00
27294;BME280;14785;52.556;13.430;2022-11-20T00:02:41;100403.94;;;1.37;100.00
27294;BME280;14785;52.556;13.430;2022-11-20T00:05:07;100408.53;;;1.46;100.00
27294;BME280;14785;52.556;13.430;2022-11-20T00:07:33;100407.16;;;1.66;100.00
27294;BME280;14785;52.556;13.430;2022-11-20T00:09:58;100404.25;;;1.33;100.00
27294;BME280;14785;52.556;13.430;2022-11-20T00:12:24;100400.66;;;1.34;100.00
27294;BME280;14785;52.556;13.430;2022-11-20T00:14:49;100409.47;;;1.33;100.00
27294;BME280;14785;52.556;13.430;2022-11-20T00:17:15;100403.59;;;1.42;100.00
27294;BME280;14785;52.556;13.430;2022-11-20T00:19:43;100402.56;;;1.57;100.00
27294;BME280;14785;52.556;13.430;2022-11-20T00:22:13;100398.16;;;1.32;100.00
27294;BME280;14785;52.556;13.430;2022-11-20T00:24:39;100395.97;;;1.39;100.00
27294;BME280;14785;52.556;13.430;2022-11-20T00:27:04;100396.06;;;1.37;100.00
27294;BME280;14785;52.556;13.430;2022-11-20T00:29:33;100401.50;;;1.47;100.00
27294;BME280;14785;52.556;13.430;2022-11-20T00:31:58;100398.16;;;1.45;100.00
27294;BME280;14785;52.556;13.430;2022-11-20T00:34:27;100399.63;;;1.24;100.00
27294;BME280;14785;52.556;13.430;2022-11-20T00:36:52;100400.88;;;1.31;100.00
27294;BME280;14785;52.556;13.430;2022-11-20T00:39:18;100399.41;;;1.52;100.00
27294;BME280;14785;52.556;13.430;2022-11-20T00:41:43;100407.78;;;1.32;100.00
27294;BME280;14785;52.556;13.430;2022-11-20T00:44:09;100406.94;;;1.19;100.00
27294;BME280;14785;52.556;13.430;2022-11-20T00:46:34;100411.84;;;1.11;100.00
27294;BME280;14785;52.556;13.430;2022-11-20T00:48:59;100414.25;;;1.01;100.00
27294;BME280;14785;52.556;13.430;2022-11-20T00:51:26;100402.97;;;1.26;100.00
27294;BME280;14785;52.556;13.430;2022-11-20T00:53:57;100403.78;;;1.14;100.00
27294;BME280;14785;52.556;13.430;2022-11-20T00:56:23;100393.72;;;1.08;100.00
27294;BME280;14785;52.556;13.430;2022-11-20T00:58:48;100393.94;;;1.17;100.00
27294;BME280;14785;52.556;13.430;2022-11-20T01:01:19;100397.72;;;1.13;100.00
27294;BME280;14785;52.556;13.430;2022-11-20T01:03:47;100396.25;;;1.22;100.00
27294;BME280;14785;52.556;13.430;2022-11-20T01:06:24;100395.94;;;1.14;100.00
27294;BME280;14785;52.556;13.430;2022-11-20T01:08:50;100395.63;;;1.06;100.00
27294;BME280;14785;52.556;13.430;2022-11-20T01:11:19;100390.78;;;1.00;100.00
27294;BME280;14785;52.556;13.430;2022-11-20T01:13:47;100390.19;;;1.09;100.00
27294;BME280;14785;52.556;13.430;2022-11-20T01:16:21;100389.44;;;1.32;100.00
27294;BME280;14785;52.556;13.430;2022-11-20T01:18:48;100387.16;;;1.15;100.00
27294;BME280;14785;52.556;13.430;2022-11-20T01:21:17;100392.91;;;1.20;100.00
27294;BME280;14785;52.556;13.430;2022-11-20T01:23:44;100391.84;;;1.35;100.00
27294;BME280;14785;52.556;13.430;2022-11-20T01:26:12;100395.22;;;1.12;100.00
27294;BME280;14785;52.556;13.430;2022-11-20T01:28:38;100398.13;;;1.20;100.00
27294;BME280;14785;52.556;13.430;2022-11-20T01:31:19;100387.69;;;1.45;100.00
27294;BME280;14785;52.556;13.430;2022-11-20T01:33:46;100392.06;;;1.57;100.00
27294;BME280;14785;52.556;13.430;2022-11-20T01:36:13;100389.84;;;1.26;100.00
27294;BME280;14785;52.556;13.430;2022-11-20T01:38:40;100379.50;;;1.49;100.00
27294;BME280;14785;52.556;13.430;2022-11-20T01:41:06;100377.59;;;1.51;100.00
27294;BME280;14785;52.556;13.430;2022-11-20T01:43:32;100374.53;;;1.57;100.00
27294;BME280;14785;52.556;13.430;2022-11-20T01:50:58;100375.91;;;1.38;100.00
27294;BME280;14785;52.556;13.430;2022-11-20T01:53:29;100374.47;;;1.34;100.00
27294;BME280;14785;52.556;13.430;2022-11-20T01:56:00;100365.25;;;1.28;100.00
27294;BME280;14785;52.556;13.430;2022-11-20T01:58:33;100368.91;;;1.51;100.00
27294;BME280;14785;52.556;13.430;2022-11-20T02:01:00;100355.38;;;1.57;100.00
27294;BME280;14785;52.556;13.430;2022-11-20T02:03:27;100369.84;;;1.50;100.00
27294;BME280;14785;52.556;13.430;2022-11-20T02:05:58;100360.63;;;1.32;100.00
27294;BME280;14785;52.556;13.430;2022-11-20T02:08:27;100353.50;;;1.34;100.00
27294;BME280;14785;52.556;13.430;2022-11-20T02:10:53;100354.75;;;1.41;100.00
27294;BME280;14785;52.556;13.430;2022-11-20T02:13:19;100355.59;;;1.29;100.00
27294;BME280;14785;52.556;13.430;2022-11-20T02:16:03;100346.59;;;1.33;100.00
27294;BME280;14785;52.556;13.430;2022-11-20T02:18:29;100341.88;;;1.25;100.00
27294;BME280;14785;52.556;13.430;2022-11-20T02:21:03;100337.31;;;1.65;100.00
27294;BME280;14785;52.556;13.430;2022-11-20T02:26:20;100343.81;;;1.72;100.00
27294;BME280;14785;52.556;13.430;2022-11-20T02:28:48;100342.97;;;1.84;100.00
27294;BME280;14785;52.556;13.430;2022-11-20T02:31:14;100335.41;;;1.79;100.00
27294;BME280;14785;52.556;13.430;2022-11-20T02:33:39;100334.56;;;1.79;100.00
27294;BME280;14785;52.556;13.430;2022-11-20T02:36:05;100336.63;;;1.99;100.00
27294;BME280;14785;52.556;13.430;2022-11-20T02:38:31;100337.28;;;1.90;100.00
27294;BME280;14785;52.556;13.430;2022-11-20T02:40:56;100344.19;;;1.30;100.00
27294;BME280;14785;52.556;13.430;2022-11-20T02:43:22;100342.19;;;1.33;100.00
27294;BME280;14785;52.556;13.430;2022-11-20T02:45:48;100339.03;;;1.41;100.00
27294;BME280;14785;52.556;13.430;2022-11-20T02:48:13;100330.09;;;1.56;100.00
27294;BME280;14785;52.556;13.430;2022-11-20T02:50:39;100335.50;;;1.29;100.00
27294;BME280;14785;52.556;13.430;2022-11-20T02:53:05;100334.25;;;1.22;100.00
27294;BME280;14785;52.556;13.430;2022-11-20T02:55:31;100335.88;;;1.61;100.00
27294;BME280;14785;52.556;13.430;2022-11-20T02:57:56;100337.03;;;1.32;100.00
27294;BME280;14785;52.556;13.430;2022-11-20T03:00:21;100337.06;;;1.19;100.00
27294;BME280;14785;52.556;13.430;2022-11-20T03:02:47;100328.34;;;1.44;100.00
27294;BME280;14785;52.556;13.430;2022-11-20T03:05:12;100341.03;;;1.25;100.00
27294;BME280;14785;52.556;13.430;2022-11-20T03:07:38;100324.03;;;1.55;100.00
27294;BME280;14785;52.556;13.430;2022-11-20T03:10:04;100327.09;;;1.49;100.00
27294;BME280;14785;52.556;13.430;2022-11-20T03:12:29;100329.81;;;1.23;100.00
27294;BME280;14785;52.556;13.430;2022-11-20T03:14:55;100321.88;;;1.12;100.00
27294;BME280;14785;52.556;13.430;2022-11-20T03:17:20;100317.25;;;1.15;100.00
27294;BME280;14785;52.556;13.430;2022-11-20T03:19:46;100317.88;;;1.19;100.00
27294;BME280;14785;52.556;13.430;2022-11-20T03:22:11;100311.81;;;1.06;100.00
27294;BME280;14785;52.556;13.430;2022-11-20T03:24:36;100313.28;;;1.10;100.00
27294;BME280;14785;52.556;13.430;2022-11-20T03:27:02;100307.53;;;1.30;100.00
27294;BME280;14785;52.556;13.430;2022-11-20T03:29:27;100316.50;;;1.26;100.00
27294;BME280;14785;52.556;13.430;2022-11-20T03:31:53;100306.78;;;1.28;100.00
27294;BME280;14785;52.556;13.430;2022-11-20T03:34:18;100307.63;;;1.03;100.00
27294;BME280;14785;52.556;13.430;2022-11-20T03:36:44;100308.88;;;1.23;100.00
27294;BME280;14785;52.556;13.430;2022-11-20T03:39:10;100312.84;;;1.03;100.00
27294;BME280;14785;52.556;13.430;2022-11-20T03:41:37;100315.28;;;0.94;100.00
27294;BME280;14785;52.556;13.430;2022-11-20T03:44:05;100307.22;;;0.97;100.00
27294;BME280;14785;52.556;13.430;2022-11-20T03:46:31;100306.34;;;1.21;100.00
27294;BME280;14785;52.556;13.430;2022-11-20T03:48:57;100303.97;;;0.93;100.00
27294;BME280;14785;52.556;13.430;2022-11-20T03:51:25;100299.06;;;1.01;100.00
27294;BME280;14785;52.556;13.430;2022-11-20T03:53:54;100300.41;;;1.19;100.00
27294;BME280;14785;52.556;13.430;2022-11-20T03:56:23;100290.56;;;1.59;100.00
27294;BME280;14785;52.556;13.430;2022-11-20T03:58:48;100291.41;;;1.72;100.00
27294;BME280;14785;52.556;13.430;2022-11-20T04:01:15;100305.31;;;1.24;100.00
27294;BME280;14785;52.556;13.430;2022-11-20T04:03:42;100292.53;;;1.07;100.00
27294;BME280;14785;52.556;13.430;2022-11-20T04:06:09;100294.88;;;1.60;100.00
27294;BME280;14785;52.556;13.430;2022-11-20T04:08:34;100284.38;;;1.24;100.00
27294;BME280;14785;52.556;13.430;2022-11-20T04:13:40;100288.53;;;1.26;100.00
27294;BME280;14785;52.556;13.430;2022-11-20T04:16:06;100286.19;;;1.47;100.00
27294;BME280;14785;52.556;13.430;2022-11-20T04:18:33;100287.72;;;1.62;100.00
27294;BME280;14785;52.556;13.430;2022-11-20T04:20:59;100290.22;;;1.27;100.00
27294;BME280;14785;52.556;13.430;2022-11-20T04:23:26;100278.28;;;1.11;100.00
27294;BME280;14785;52.556;13.430;2022-11-20T04:25:52;100290.72;;;1.45;100.00
27294;BME280;14785;52.556;13.430;2022-11-20T04:28:17;100296.09;;;1.31;100.00
27294;BME280;14785;52.556;13.430;2022-11-20T04:30:43;100297.69;;;1.21;100.00
27294;BME280;14785;52.556;13.430;2022-11-20T04:33:08;100300.41;;;1.07;100.00
27294;BME280;14785;52.556;13.430;2022-11-20T04:35:35;100290.03;;;1.18;100.00
27294;BME280;14785;52.556;13.430;2022-11-20T04:38:00;100286.72;;;1.52;100.00
27294;BME280;14785;52.556;13.430;2022-11-20T04:40:27;100289.34;;;1.52;100.00
27294;BME280;14785;52.556;13.430;2022-11-20T04:42:52;100286.03;;;1.37;100.00
27294;BME280;14785;52.556;13.430;2022-11-20T04:45:17;100285.72;;;1.42;100.00
27294;BME280;14785;52.556;13.430;2022-11-20T04:47:43;100277.34;;;1.73;100.00
27294;BME280;14785;52.556;13.430;2022-11-20T04:50:08;100280.97;;;2.07;100.00
27294;BME280;14785;52.556;13.430;2022-11-20T04:52:35;100277.44;;;1.95;100.00
27294;BME280;14785;52.556;13.430;2022-11-20T04:55:00;100269.69;;;1.34;100.00
27294;BME280;14785;52.556;13.430;2022-11-20T04:57:25;100271.53;;;1.57;100.00
27294;BME280;14785;52.556;13.430;2022-11-20T04:59:51;100264.03;;;1.63;100.00
27294;BME280;14785;52.556;13.430;2022-11-20T05:02:16;100267.03;;;1.46;100.00
27294;BME280;14785;52.556;13.430;2022-11-20T05:04:42;100266.09;;;1.35;100.00
27294;BME280;14785;52.556;13.430;2022-11-20T05:07:07;100269.56;;;1.23;100.00
27294;BME280;14785;52.556;13.430;2022-11-20T05:09:33;100258.66;;;1.29;100.00
27294;BME280;14785;52.556;13.430;2022-11-20T05:11:58;100263.63;;;1.08;100.00
27294;BME280;14785;52.556;13.430;2022-11-20T05:14:24;100252.78;;;1.02;100.00
27294;BME280;14785;52.556;13.430;2022-11-20T05:16:49;100257.53;;;1.08;100.00
27294;BME280;14785;52.556;13.430;2022-11-20T05:19:14;100253.09;;;0.97;100.00
27294;BME280;14785;52.556;13.430;2022-11-20T05:21:40;100254.72;;;1.11;100.00
27294;BME280;14785;52.556;13.430;2022-11-20T05:24:05;100255.88;;;1.19;100.00
27294;BME280;14785;52.556;13.430;2022-11-20T05:26:32;100251.97;;;1.25;100.00
27294;BME280;14785;52.556;13.430;2022-11-20T05:28:57;100250.97;;;1.15;100.00
27294;BME280;14785;52.556;13.430;2022-11-20T05:31:24;100241.63;;;1.23;100.00
27294;BME280;14785;52.556;13.430;2022-11-20T05:33:50;100258.41;;;1.21;100.00
27294;BME280;14785;52.556;13.430;2022-11-20T05:36:16;100250.75;;;1.18;100.00
27294;BME280;14785;52.556;13.430;2022-11-20T05:38:42;100251.88;;;1.14;100.00
27294;BME280;14785;52.556;13.430;2022-11-20T05:41:16;100246.84;;;1.36;100.00
27294;BME280;14785;52.556;13.430;2022-11-20T05:43:44;100251.25;;;1.23;100.00
27294;BME280;14785;52.556;13.430;2022-11-20T05:46:12;100248.28;;;1.40;100.00
27294;BME280;14785;52.556;13.430;2022-11-20T05:48:39;100238.66;;;1.40;100.00
27294;BME280;14785;52.556;13.430;2022-11-20T05:51:08;100234.38;;;1.63;100.00
27294;BME280;14785;52.556;13.430;2022-11-20T05:53:35;100234.75;;;1.46;100.00
27294;BME280;14785;52.556;13.430;2022-11-20T05:56:12;100228.94;;;1.66;100.00
27294;BME280;14785;52.556;13.430;2022-11-20T05:58:38;100222.09;;;1.40;100.00
27294;BME280;14785;52.556;13.430;2022-11-20T06:03:35;100227.88;;;1.56;100.00
27294;BME280;14785;52.556;13.430;2022-11-20T06:06:01;100229.06;;;1.52;100.00
27294;BME280;14785;52.556;13.430;2022-11-20T06:08:27;100225.22;;;1.92;100.00
27294;BME280;14785;52.556;13.430;2022-11-20T06:10:53;100225.91;;;1.83;100.00
27294;BME280;14785;52.556;13.430;2022-11-20T06:13:18;100223.84;;;1.99;100.00
27294;BME280;14785;52.556;13.430;2022-11-20T06:15:51;100225.91;;;1.83;100.00
27294;BME280;14785;52.556;13.430;2022-11-20T06:18:17;100225.56;;;1.64;100.00
27294;BME280;14785;52.556;13.430;2022-11-20T06:20:43;100228.66;;;2.16;100.00
27294;BME280;14785;52.556;13.430;2022-11-20T06:23:08;100224.09;;;2.42;100.00
27294;BME280;14785;52.556;13.430;2022-11-20T06:25:37;100224.09;;;2.42;100.00
27294;BME280;14785;52.556;13.430;2022-11-20T06:28:03;100216.53;;;2.72;100.00
27294;BME280;14785;52.556;13.430;2022-11-20T06:30:29;100222.22;;;2.20;100.00
27294;BME280;14785;52.556;13.430;2022-11-20T06:32:54;100220.38;;;2.33;100.00
27294;BME280;14785;52.556;13.430;2022-11-20T06:35:20;100221.03;;;2.13;100.00
27294;BME280;14785;52.556;13.430;2022-11-20T06:37:45;100219.22;;;2.48;100.00
27294;BME280;14785;52.556;13.430;2022-11-20T06:40:11;100222.78;;;2.47;100.00
27294;BME280;14785;52.556;13.430;2022-11-20T06:42:36;100223.88;;;2.45;100.00
27294;BME280;14785;52.556;13.430;2022-11-20T06:45:02;100220.50;;;2.43;100.00
27294;BME280;14785;52.556;13.430;2022-11-20T06:47:27;100216.84;;;2.45;100.00
27294;BME280;14785;52.556;13.430;2022-11-20T06:49:53;100219.97;;;2.61;100.00
27294;BME280;14785;52.556;13.430;2022-11-20T06:52:18;100207.34;;;2.66;100.00
27294;BME280;14785;52.556;13.430;2022-11-20T06:54:44;100212.28;;;2.36;100.00
27294;BME280;14785;52.556;13.430;2022-11-20T06:57:09;100213.19;;;2.92;100.00
27294;BME280;14785;52.556;13.430;2022-11-20T06:59:35;100211.41;;;2.81;100.00
27294;BME280;14785;52.556;13.430;2022-11-20T07:02:00;100208.38;;;2.64;100.00
27294;BME280;14785;52.556;13.430;2022-11-20T07:04:25;100204.69;;;2.77;100.00
27294;BME280;14785;52.556;13.430;2022-11-20T07:06:51;100206.16;;;2.81;100.00
27294;BME280;14785;52.556;13.430;2022-11-20T07:09:16;100197.19;;;2.73;100.00
27294;BME280;14785;52.556;13.430;2022-11-20T07:11:41;100198.25;;;2.70;100.00
27294;BME280;14785;52.556;13.430;2022-11-20T07:14:07;100209.00;;;2.89;100.00
27294;BME280;14785;52.556;13.430;2022-11-20T07:16:32;100210.50;;;2.48;100.00
27294;BME280;14785;52.556;13.430;2022-11-20T07:18:58;100203.13;;;2.53;100.00
27294;BME280;14785;52.556;13.430;2022-11-20T07:21:23;100203.03;;;2.76;100.00
27294;BME280;14785;52.556;13.430;2022-11-20T07:23:49;100204.00;;;2.86;100.00
27294;BME280;14785;52.556;13.430;2022-11-20T07:26:14;100205.47;;;2.34;100.00
27294;BME280;14785;52.556;13.430;2022-11-20T07:28:43;100210.31;;;2.73;100.00
27294;BME280;14785;52.556;13.430;2022-11-20T07:31:09;100208.66;;;2.83;100.00
27294;BME280;14785;52.556;13.430;2022-11-20T07:33:34;100206.63;;;2.97;100.00
27294;BME280;14785;52.556;13.430;2022-11-20T07:36:00;100212.00;;;3.07;100.00
27294;BME280;14785;52.556;13.430;2022-11-20T07:38:25;100205.44;;;3.01;100.00
27294;BME280;14785;52.556;13.430;2022-11-20T07:40:55;100208.75;;;3.14;100.00
27294;BME280;14785;52.556;13.430;2022-11-20T07:43:21;100197.06;;;2.74;100.00
27294;BME280;14785;52.556;13.430;2022-11-20T07:45:46;100198.50;;;2.67;100.00
27294;BME280;14785;52.556;13.430;2022-11-20T07:48:12;100190.81;;;2.53;100.00
27294;BME280;14785;52.556;13.430;2022-11-20T07:50:38;100188.81;;;2.57;100.00
27294;BME280;14785;52.556;13.430;2022-11-20T07:53:04;100187.75;;;2.92;100.00
27294;BME280;14785;52.556;13.430;2022-11-20T07:55:30;100184.06;;;2.62;100.00
27294;BME280;14785;52.556;13.430;2022-11-20T07:57:56;100186.53;;;2.52;100.00
27294;BME280;14785;52.556;13.430;2022-11-20T08:00:22;100192.53;;;2.54;100.00
27294;BME280;14785;52.556;13.430;2022-11-20T08:02:48;100197.09;;;2.96;100.00
27294;BME280;14785;52.556;13.430;2022-11-20T08:05:13;100187.38;;;2.07;100.00
27294;BME280;14785;52.556;13.430;2022-11-20T08:07:40;100189.84;;;2.32;100.00
27294;BME280;14785;52.556;13.430;2022-11-20T08:10:08;100187.97;;;2.45;100.00
27294;BME280;14785;52.556;13.430;2022-11-20T08:12:33;100188.59;;;2.60;100.00
27294;BME280;14785;52.556;13.430;2022-11-20T08:15:17;100184.75;;;2.64;100.00
27294;BME280;14785;52.556;13.430;2022-11-20T08:17:43;100179.13;;;2.46;100.00
27294;BME280;14785;52.556;13.430;2022-11-20T08:20:09;100184.41;;;2.79;100.00
27294;BME280;14785;52.556;13.430;2022-11-20T08:22:34;100190.38;;;2.70;100.00
27294;BME280;14785;52.556;13.430;2022-11-20T08:25:00;100179.66;;;2.84;100.00
27294;BME280;14785;52.556;13.430;2022-11-20T08:27:26;100178.31;;;2.57;100.00
27294;BME280;14785;52.556;13.430;2022-11-20T08:29:51;100173.66;;;2.49;100.00
27294;BME280;14785;52.556;13.430;2022-11-20T08:32:16;100179.56;;;2.18;100.00
27294;BME280;14785;52.556;13.430;2022-11-20T08:34:42;100174.38;;;2.73;100.00
27294;BME280;14785;52.556;13.430;2022-11-20T08:37:07;100166.97;;;2.45;100.00
27294;BME280;14785;52.556;13.430;2022-11-20T08:39:33;100172.53;;;2.30;100.00
27294;BME280;14785;52.556;13.430;2022-11-20T08:41:58;100170.50;;;2.22;100.00
27294;BME280;14785;52.556;13.430;2022-11-20T08:44:24;100164.56;;;2.53;100.00
27294;BME280;14785;52.556;13.430;2022-11-20T08:46:49;100168.66;;;2.79;100.00
27294;BME280;14785;52.556;13.430;2022-11-20T08:49:15;100161.72;;;2.45;100.00
27294;BME280;14785;52.556;13.430;2022-11-20T08:51:41;100167.28;;;1.84;100.00
27294;BME280;14785;52.556;13.430;2022-11-20T08:54:07;100177.09;;;1.93;100.00
27294;BME280;14785;52.556;13.430;2022-11-20T08:56:33;100177.84;;;1.48;100.00
27294;BME280;14785;52.556;13.430;2022-11-20T08:58:59;100170.13;;;1.34;100.00
27294;BME280;14785;52.556;13.430;2022-11-20T09:01:25;100171.41;;;1.28;100.00
27294;BME280;14785;52.556;13.430;2022-11-20T09:03:51;100183.19;;;1.10;100.00
27294;BME280;14785;52.556;13.430;2022-11-20T09:06:16;100178.97;;;1.44;100.00
27294;BME280;14785;52.556;13.430;2022-11-20T09:08:42;100185.03;;;1.80;100.00
27294;BME280;14785;52.556;13.430;2022-11-20T09:11:08;100186.09;;;1.78;100.00
27294;BME280;14785;52.556;13.430;2022-11-20T09:13:34;100178.16;;;1.67;100.00
27294;BME280;14785;52.556;13.430;2022-11-20T09:16:16;100188.81;;;1.17;100.00
27294;BME280;14785;52.556;13.430;2022-11-20T09:18:41;100191.38;;;1.06;100.00
27294;BME280;14785;52.556;13.430;2022-11-20T09:21:10;100187.03;;;1.30;100.00
27294;BME280;14785;52.556;13.430;2022-11-20T09:23:37;100191.78;;;1.72;100.00
27294;BME280;14785;52.556;13.430;2022-11-20T09:26:11;100193.19;;;1.29;100.00
27294;BME280;14785;52.556;13.430;2022-11-20T09:28:37;100192.75;;;1.35;100.00
27294;BME280;14785;52.556;13.430;2022-11-20T09:31:07;100186.31;;;1.75;100.00
27294;BME280;14785;52.556;13.430;2022-11-20T09:33:33;100189.38;;;1.92;100.00
27294;BME280;14785;52.556;13.430;2022-11-20T09:35:59;100187.38;;;2.07;100.00
27294;BME280;14785;52.556;13.430;2022-11-20T09:38:25;100181.59;;;1.91;100.00
27294;BME280;14785;52.556;13.430;2022-11-20T09:41:03;100177.63;;;2.20;100.00
27294;BME280;14785;52.556;13.430;2022-11-20T09:49:11;100173.78;;;2.02;100.00
27294;BME280;14785;52.556;13.430;2022-11-20T09:51:58;100171.41;;;2.10;100.00
27294;BME280;14785;52.556;13.430;2022-11-20T09:57:19;100173.38;;;2.30;100.00
27294;BME280;14785;52.556;13.430;2022-11-20T09:59:52;100166.97;;;2.45;100.00
27294;BME280;14785;52.556;13.430;2022-11-20T10:02:30;100164.63;;;2.75;100.00
27294;BME280;14785;52.556;13.430;2022-11-20T10:05:06;100156.03;;;2.84;100.00
27294;BME280;14785;52.556;13.430;2022-11-20T10:10:21;100152.09;;;2.68;100.00
27294;BME280;14785;52.556;13.430;2022-11-20T10:13:10;100148.34;;;2.37;100.00
27294;BME280;14785;52.556;13.430;2022-11-20T10:32:41;100131.22;;;1.98;100.00
27294;BME280;14785;52.556;13.430;2022-11-20T10:35:29;100132.09;;;2.21;100.00
27294;BME280;14785;52.556;13.430;2022-11-20T10:38:00;100134.28;;;2.49;100.00
27294;BME280;14785;52.556;13.430;2022-11-20T10:40:49;100125.63;;;2.14;100.00
27294;BME280;14785;52.556;13.430;2022-11-20T10:43:28;100122.31;;;2.12;100.00
27294;BME280;14785;52.556;13.430;2022-11-20T10:46:01;100129.25;;;2.35;100.00
27294;BME280;14785;52.556;13.430;2022-11-20T10:48:28;100127.59;;;2.56;100.00
27294;BME280;14785;52.556;13.430;2022-11-20T10:51:25;100124.50;;;2.73;100.00
27294;BME280;14785;52.556;13.430;2022-11-20T10:56:46;100121.59;;;2.32;100.00
27294;BME280;14785;52.556;13.430;2022-11-20T11:02:15;100122.09;;;2.37;100.00
27294;BME280;14785;52.556;13.430;2022-11-20T11:04:44;100125.94;;;2.55;100.00
27294;BME280;14785;52.556;13.430;2022-11-20T11:09:47;100129.00;;;2.38;100.00
27294;BME280;14785;52.556;13.430;2022-11-20T11:12:13;100126.03;;;2.43;100.00
27294;BME280;14785;52.556;13.430;2022-11-20T11:14:50;100124.03;;;2.57;100.00
27294;BME280;14785;52.556;13.430;2022-11-20T11:17:33;100111.97;;;2.44;100.00
27294;BME280;14785;52.556;13.430;2022-11-20T11:20:15;100122.34;;;2.56;100.00
27294;BME280;14785;52.556;13.430;2022-11-20T11:22:48;100110.19;;;2.33;100.00
27294;BME280;14785;52.556;13.430;2022-11-20T11:25:55;100113.16;;;2.51;100.00
27294;BME280;14785;52.556;13.430;2022-11-20T11:28:22;100116.16;;;2.57;100.00
27294;BME280;14785;52.556;13.430;2022-11-20T11:30:51;100114.50;;;2.45;100.00
27294;BME280;14785;52.556;13.430;2022-11-20T11:33:31;100107.53;;;2.44;100.00
27294;BME280;14785;52.556;13.430;2022-11-20T11:36:17;100106.97;;;2.63;100.00
27294;BME280;14785;52.556;13.430;2022-11-20T11:38:44;100100.66;;;2.54;100.00
27294;BME280;14785;52.556;13.430;2022-11-20T11:41:14;100097.06;;;2.55;100.00
27294;BME280;14785;52.556;13.430;2022-11-20T11:43:51;100100.88;;;2.51;100.00
27294;BME280;14785;52.556;13.430;2022-11-20T11:46:36;100099.22;;;2.61;100.00
27294;BME280;14785;52.556;13.430;2022-11-20T11:52:13;100107.06;;;2.28;100.00
27294;BME280;14785;52.556;13.430;2022-11-20T11:54:56;100098.56;;;1.68;100.00
27294;BME280;14785;52.556;13.430;2022-11-20T12:00:12;100102.88;;;1.69;100.00
27294;BME280;14785;52.556;13.430;2022-11-20T12:07:44;100110.75;;;1.22;100.00
27294;BME280;14785;52.556;13.430;2022-11-20T12:10:23;100104.94;;;1.53;100.00
27294;BME280;14785;52.556;13.430;2022-11-20T12:13:00;100099.16;;;1.60;100.00
27294;BME280;14785;52.556;13.430;2022-11-20T12:15:32;100113.34;;;1.34;100.00
27294;BME280;14785;52.556;13.430;2022-11-20T12:17:58;100103.88;;;1.79;100.00
27294;BME280;14785;52.556;13.430;2022-11-20T12:20:29;100102.72;;;1.94;100.00
27294;BME280;14785;52.556;13.430;2022-11-20T12:23:30;100107.41;;;1.67;100.00
27294;BME280;14785;52.556;13.430;2022-11-20T12:26:08;100099.38;;;1.92;100.00
27294;BME280;14785;52.556;13.430;2022-11-20T12:28:44;100092.13;;;2.07;100.00
27294;BME280;14785;52.556;13.430;2022-11-20T12:31:37;100088.09;;;1.68;100.00
27294;BME280;14785;52.556;13.430;2022-11-20T12:34:19;100090.91;;;1.99;100.00
27294;BME280;14785;52.556;13.430;2022-11-20T12:37:06;100084.41;;;2.05;100.00
27294;BME280;14785;52.556;13.430;2022-11-20T12:39:41;100080.81;;;2.50;100.00
27294;BME280;14785;52.556;13.430;2022-11-20T12:45:21;100072.91;;;2.94;100.00
27294;BME280;14785;52.556;13.430;2022-11-20T12:56:46;100071.09;;;3.48;100.00
27294;BME280;14785;52.556;13.430;2022-11-20T13:07:10;100047.03;;;2.90;100.00
27294;BME280;14785;52.556;13.430;2022-11-20T13:09:46;100051.06;;;3.57;100.00
27294;BME280;14785;52.556;13.430;2022-11-20T13:20:16;100039.69;;;3.04;100.00
27294;BME280;14785;52.556;13.430;2022-11-20T13:25:24;100043.34;;;3.44;100.00
27294;BME280;14785;52.556;13.430;2022-11-20T13:27:50;100045.41;;;3.09;100.00
27294;BME280;14785;52.556;13.430;2022-11-20T13:30:18;100041.19;;;3.49;100.00
27294;BME280;14785;52.556;13.430;2022-11-20T13:32:54;100039.56;;;2.63;100.00
27294;BME280;14785;52.556;13.430;2022-11-20T13:36:03;100035.38;;;2.39;100.00
27294;BME280;14785;52.556;13.430;2022-11-20T13:38:11;100036.09;;;2.63;100.00
27294;BME280;14785;52.556;13.430;2022-11-20T13:40:59;100035.97;;;2.64;100.00
27294;BME280;14785;52.556;13.430;2022-11-20T13:43:47;100033.22;;;1.99;100.00
27294;BME280;14785;52.556;13.430;2022-11-20T13:46:13;100028.03;;;1.65;100.00
27294;BME280;14785;52.556;13.430;2022-11-20T13:48:44;100038.31;;;1.79;100.00
27294;BME280;14785;52.556;13.430;2022-11-20T13:56:24;100043.63;;;2.12;100.00
27294;BME280;14785;52.556;13.430;2022-11-20T14:01:39;100045.47;;;1.66;100.00
27294;BME280;14785;52.556;13.430;2022-11-20T14:04:08;100056.41;;;1.60;100.00
27294;BME280;14785;52.556;13.430;2022-11-20T14:06:41;100060.41;;;1.53;100.00
27294;BME280;14785;52.556;13.430;2022-11-20T14:09:30;100053.00;;;1.47;100.00
27294;BME280;14785;52.556;13.430;2022-11-20T14:11:56;100053.91;;;1.35;100.00
27294;BME280;14785;52.556;13.430;2022-11-20T14:14:23;100067.56;;;1.51;100.00
27294;BME280;14785;52.556;13.430;2022-11-20T14:16:50;100051.06;;;1.38;100.00
27294;BME280;14785;52.556;13.430;2022-11-20T14:21:48;100063.81;;;1.42;100.00
27294;BME280;14785;52.556;13.430;2022-11-20T14:24:19;100059.56;;;1.87;100.00
27294;BME280;14785;52.556;13.430;2022-11-20T14:26:46;100070.97;;;1.40;100.00
27294;BME280;14785;52.556;13.430;2022-11-20T14:29:13;100060.84;;;1.36;100.00